Time;durP1;ratioP1;P1;durP2;ratioP2;P2;SDS_P1;SDS_P2;PMS_P1;PMS_P2;Temp;Humidity;BMP_temperature;BMP_pressure;BME280_temperature;BME280_humidity;BME280_pressure;Samples;Min_cycle;Max_cycle;Signal;HPM_P1;HPM_P2
2022/12/15 00:40:03;;;;;;;;;;;;;;;;;;5048235;28;19982;-60
2022/12/15 00:42:31;;;;;;;;;;;;;;;;;;5046675;28;19924;-60
2022/12/15 00:44:56;;;;;;;;;;;;;;;;;;5050837;28;19916;-60
2022/12/15 00:47:22;;;;;;;;;;;;;;;;;;5035213;28;20234;-59
2022/12/15 01:20:18;;;;;;;;;;;;;;;;;;5048405;28;19920;-59
2022/12/15 01:22:43;;;;;;;;;;;;;;;;;;5038588;28;20600;-59
2022/12/15 01:25:09;;;;;;;;;;;;;;;;;;5033856;28;20692;-59
2022/12/15 01:27:34;;;;;;;;;;;;;;;;;;5049517;28;19920;-59
2022/12/15 01:29:59;;;;;;;;;;;;;;;;;;5050589;28;19927;-60
2022/12/15 01:32:26;;;;;;;;;;;;;;;;;;5049254;28;19951;-59
2022/12/15 01:34:56;;;;;;;;;;;;;;;;;;5035666;28;19959;-59
2022/12/15 01:37:22;;;;;;;;;;;;;;;;;;5048703;28;19932;-60
2022/12/15 01:42:34;;;;;;;;;;;;;;;;;;5048920;28;20578;-60
2022/12/15 01:44:59;;;;;;;;;;;;;;;;;;5030043;28;20011;-60
2022/12/15 01:47:24;;;;;;;;;;;;;;;;;;5042427;28;19923;-60
2022/12/15 01:49:50;;;;;;;;;;;;;;;;;;5030584;28;20016;-60
2022/12/15 01:52:15;;;;;;;;;;;;;;;;;;5036868;28;19950;-60
2022/12/15 01:54:41;;;;;;;;;;;;;;;;;;5044376;28;19912;-60
2022/12/15 01:57:10;;;;;;;;;;;;;;;;;;5048384;28;19927;-60
2022/12/15 01:59:38;;;;;;;;;;;;;;;;;;5046139;28;20393;-60
2022/12/15 02:02:03;;;;;;;;;;;;;;;;;;5041872;28;19960;-60
2022/12/15 02:04:28;;;;;;;;;;;;;;;;;;5047345;28;20448;-60
2022/12/15 02:06:54;;;;;;;;;;;;;;;;;;5050753;28;19928;-60
2022/12/15 02:09:19;;;;;;;;;;;;;;;;;;5034605;28;19983;-60
2022/12/15 02:11:44;;;;;;;;;;;;;;;;;;5020772;28;21587;-59
2022/12/15 02:14:12;;;;;;;;;;;;;;;;;;5055120;28;19924;-60
2022/12/15 02:16:37;;;;;;;;;;;;;;;;;;5037197;28;20126;-59
2022/12/15 02:19:03;;;;;;;;;;;;;;;;;;5057311;28;20213;-59
2022/12/15 02:21:28;;;;;;;;;;;;;;;;;;5052319;28;20986;-59
2022/12/15 02:23:56;;;;;;;;;;;;;;;;;;5033554;28;19920;-59
2022/12/15 02:26:24;;;;;;;;;;;;;;;;;;5058124;28;22141;-59
2022/12/15 02:28:52;;;;;;;;;;;;;;;;;;5041830;28;20073;-59
2022/12/15 02:34:02;;;;;;;;;;;;;;;;;;5060089;28;19924;-60
2022/12/15 02:36:30;;;;;;;;;;;;;;;;;;5035251;28;19920;-60
2022/12/15 02:38:55;;;;;;;;;;;;;;;;;;5056288;28;20004;-60
2022/12/15 02:41:23;;;;;;;;;;;;;;;;;;4969792;28;20014;-60
2022/12/15 02:43:48;;;;;;;;;;;;;;;;;;5052994;28;20011;-59
2022/12/15 02:46:13;;;;;;;;;;;;;;;;;;5035465;28;19931;-59
2022/12/15 02:48:38;;;;;;;;;;;;;;;;;;5021237;28;19967;-60
2022/12/15 02:51:06;;;;;;;;;;;;;;;;;;5039638;28;20510;-60
2022/12/15 02:59:39;;;;;;;;;;;;;;;;;;5041392;28;20333;-59
2022/12/15 03:02:07;;;;;;;;;;;;;;;;;;5052543;28;20401;-60
2022/12/15 03:04:33;;;;;;;;;;;;;;;;;;5054407;28;19920;-60
2022/12/15 03:07:02;;;;;;;;;;;;;;;;;;5056781;28;20008;-60
2022/12/15 03:09:30;;;;;;;;;;;;;;;;;;5055024;28;19943;-60
2022/12/15 03:11:55;;;;;;;;;;;;;;;;;;5053744;28;19920;-59
2022/12/15 03:14:21;;;;;;;;;;;;;;;;;;5036771;28;19920;-59
2022/12/15 03:16:46;;;;;;;;;;;;;;;;;;4997580;28;19987;-59
2022/12/15 03:19:14;;;;;;;;;;;;;;;;;;4957056;28;20021;-59
2022/12/15 03:21:39;;;;;;;;;;;;;;;;;;4953700;28;20078;-60
2022/12/15 03:24:04;;;;;;;;;;;;;;;;;;5022936;28;20396;-60
2022/12/15 03:26:30;;;;;;;;;;;;;;;;;;5010665;28;19932;-60
2022/12/15 03:28:55;;;;;;;;;;;;;;;;;;4955347;28;19926;-60
2022/12/15 03:31:20;;;;;;;;;;;;;;;;;;5020898;28;19942;-59
2022/12/15 03:33:46;;;;;;;;;;;;;;;;;;4958069;28;19929;-59
2022/12/15 03:36:11;;;;;;;;;;;;;;;;;;5001828;28;19918;-60
2022/12/15 03:38:37;;;;;;;;;;;;;;;;;;5011654;28;20355;-59
2022/12/15 03:41:02;;;;;;;;;;;;;;;;;;4957060;28;19956;-59
2022/12/15 03:43:31;;;;;;;;;;;;;;;;;;5029363;28;20856;-60
2022/12/15 03:45:59;;;;;;;;;;;;;;;;;;5035375;28;19939;-60
2022/12/15 03:48:27;;;;;;;;;;;;;;;;;;5023779;28;19918;-60
2022/12/15 03:50:52;;;;;;;;;;;;;;;;;;5038354;28;20030;-60
2022/12/15 03:53:20;;;;;;;;;;;;;;;;;;5039030;28;19922;-60
2022/12/15 03:55:45;;;;;;;;;;;;;;;;;;4951663;28;19999;-60
2022/12/15 03:58:15;;;;;;;;;;;;;;;;;;4956234;28;19948;-60
2022/12/15 04:00:40;;;;;;;;;;;;;;;;;;5027738;28;22106;-60
2022/12/15 04:03:05;;;;;;;;;;;;;;;;;;5021560;28;19929;-61
2022/12/15 04:05:37;;;;;;;;;;;;;;;;;;4956238;28;19929;-60
2022/12/15 04:08:04;;;;;;;;;;;;;;;;;;5039170;28;19925;-60
2022/12/15 04:10:30;;;;;;;;;;;;;;;;;;5022085;28;19926;-60
2022/12/15 04:12:58;;;;;;;;;;;;;;;;;;4956132;28;20047;-60
2022/12/15 04:15:23;;;;;;;;;;;;;;;;;;5020539;28;19926;-60
2022/12/15 04:17:51;;;;;;;;;;;;;;;;;;5034055;28;19928;-60
2022/12/15 04:20:18;;;;;;;;;;;;;;;;;;5020382;28;19921;-61
2022/12/15 04:22:43;;;;;;;;;;;;;;;;;;5014724;28;20304;-60
2022/12/15 05:33:42;;;;;;;;;;;;;;;;;;5057125;28;19920;-61
2022/12/15 05:36:10;;;;;;;;;;;;;;;;;;5035487;28;20861;-60
2022/12/15 05:38:36;;;;;;;;;;;;;;;;;;5057934;28;19985;-60
2022/12/15 05:41:01;;;;;;;;;;;;;;;;;;5054840;28;20046;-62
2022/12/15 05:43:26;;;;;;;;;;;;;;;;;;5056694;28;19935;-60
2022/12/15 05:45:51;;;;;;;;;;;;;;;;;;5042274;28;19916;-60
2022/12/15 05:48:19;;;;;;;;;;;;;;;;;;5059500;28;20038;-59
2022/12/15 05:50:47;;;;;;;;;;;;;;;;;;5037107;28;19920;-60
2022/12/15 05:53:15;;;;;;;;;;;;;;;;;;5058798;28;19921;-60
2022/12/15 05:55:45;;;;;;;;;;;;;;;;;;5045087;28;19916;-60
2022/12/15 05:58:13;;;;;;;;;;;;;;;;;;5057443;28;19924;-60
2022/12/15 06:00:39;;;;;;;;;;;;;;;;;;5055473;28;20366;-60
2022/12/15 06:03:07;;;;;;;;;;;;;;;;;;5042062;28;19916;-59
2022/12/15 06:05:33;;;;;;;;;;;;;;;;;;5059106;28;19916;-60
2022/12/15 06:07:58;;;;;;;;;;;;;;;;;;5058522;28;19916;-60
2022/12/15 06:10:24;;;;;;;;;;;;;;;;;;5059852;28;19920;-60
2022/12/15 06:12:49;;;;;;;;;;;;;;;;;;5042468;28;19920;-60
2022/12/15 06:15:15;;;;;;;;;;;;;;;;;;5059251;28;20009;-60
2022/12/15 06:17:40;;;;;;;;;;;;;;;;;;5051800;28;19932;-60
2022/12/15 06:20:05;;;;;;;;;;;;;;;;;;5037035;28;21877;-60
2022/12/15 06:22:33;;;;;;;;;;;;;;;;;;5054569;28;20093;-61
2022/12/15 06:24:59;;;;;;;;;;;;;;;;;;5054675;28;21655;-60
2022/12/15 06:27:26;;;;;;;;;;;;;;;;;;5055877;28;19921;-60
2022/12/15 06:29:52;;;;;;;;;;;;;;;;;;5041162;28;20047;-60
2022/12/15 06:32:20;;;;;;;;;;;;;;;;;;5036305;28;19920;-60
2022/12/15 06:34:47;;;;;;;;;;;;;;;;;;5040771;28;19927;-60
2022/12/15 06:37:13;;;;;;;;;;;;;;;;;;5056635;28;19931;-60
2022/12/15 06:39:38;;;;;;;;;;;;;;;;;;5052675;28;19924;-60
2022/12/15 06:42:04;;;;;;;;;;;;;;;;;;5036775;28;19924;-61
2022/12/15 06:44:34;;;;;;;;;;;;;;;;;;5036479;28;19920;-60
2022/12/15 06:46:59;;;;;;;;;;;;;;;;;;5051748;28;20010;-60
2022/12/15 06:49:27;;;;;;;;;;;;;;;;;;5053266;28;19963;-60
2022/12/15 06:51:52;;;;;;;;;;;;;;;;;;5054915;28;20872;-59
2022/12/15 06:54:17;;;;;;;;;;;;;;;;;;5035756;28;20816;-59
2022/12/15 06:56:43;;;;;;;;;;;;;;;;;;5035881;28;19925;-59
2022/12/15 06:59:08;;;;;;;;;;;;;;;;;;5036373;28;19987;-59
2022/12/15 07:01:35;;;;;;;;;;;;;;;;;;5043710;28;19967;-59
2022/12/15 07:04:04;;;;;;;;;;;;;;;;;;5049826;28;19973;-59
2022/12/15 07:06:29;;;;;;;;;;;;;;;;;;5049242;28;19920;-60
2022/12/15 07:08:55;;;;;;;;;;;;;;;;;;5051933;28;19916;-60
2022/12/15 07:11:21;;;;;;;;;;;;;;;;;;5055843;28;19931;-59
2022/12/15 07:13:48;;;;;;;;;;;;;;;;;;5022395;28;20344;-59
2022/12/15 07:16:16;;;;;;;;;;;;;;;;;;5040467;28;21313;-59
2022/12/15 07:18:41;;;;;;;;;;;;;;;;;;5054285;28;19928;-60
2022/12/15 07:21:07;;;;;;;;;;;;;;;;;;5054106;28;20756;-60
2022/12/15 07:23:32;;;;;;;;;;;;;;;;;;5046049;28;19927;-60
2022/12/15 07:26:00;;;;;;;;;;;;;;;;;;5044311;28;19934;-60
2022/12/15 07:28:25;;;;;;;;;;;;;;;;;;5055259;28;19920;-60
2022/12/15 07:30:50;;;;;;;;;;;;;;;;;;5054015;28;19920;-59
2022/12/15 07:33:15;;;;;;;;;;;;;;;;;;5046679;28;19920;-59
2022/12/15 07:35:41;;;;;;;;;;;;;;;;;;5036454;28;21909;-59
2022/12/15 07:38:06;;;;;;;;;;;;;;;;;;5055280;28;20729;-59
2022/12/15 07:40:35;;;;;;;;;;;;;;;;;;5048591;28;19931;-60
2022/12/15 07:43:20;;;;;;;;;;;;;;;;;;4961764;28;20040;-60
2022/12/15 07:45:46;;;;;;;;;;;;;;;;;;4962018;28;19995;-60
2022/12/15 07:48:14;;;;;;;;;;;;;;;;;;4980071;28;19961;-60
2022/12/15 07:50:41;;;;;;;;;;;;;;;;;;4984683;28;19917;-60
2022/12/15 07:53:07;;;;;;;;;;;;;;;;;;4968083;28;19960;-60
2022/12/15 07:55:35;;;;;;;;;;;;;;;;;;4965850;28;19925;-59
2022/12/15 07:58:03;;;;;;;;;;;;;;;;;;4967548;28;20168;-60
2022/12/15 08:00:28;;;;;;;;;;;;;;;;;;4983101;28;20073;-64
2022/12/15 08:02:54;;;;;;;;;;;;;;;;;;4968611;28;19917;-62
2022/12/15 08:05:24;;;;;;;;;;;;;;;;;;4979726;28;20000;-60
2022/12/15 08:07:49;;;;;;;;;;;;;;;;;;4983206;28;19921;-59
2022/12/15 08:10:15;;;;;;;;;;;;;;;;;;4982925;28;20452;-59
2022/12/15 08:12:41;;;;;;;;;;;;;;;;;;4982801;28;19928;-60
2022/12/15 08:15:08;;;;;;;;;;;;;;;;;;5041871;28;21852;-60
2022/12/15 08:17:35;;;;;;;;;;;;;;;;;;5015986;28;19934;-60
2022/12/15 08:20:03;;;;;;;;;;;;;;;;;;4950043;28;21826;-59
2022/12/15 08:22:30;;;;;;;;;;;;;;;;;;4952929;28;19948;-60
2022/12/15 08:24:56;;;;;;;;;;;;;;;;;;5023913;28;20340;-59
2022/12/15 08:27:22;;;;;;;;;;;;;;;;;;4952977;28;19921;-59
2022/12/15 08:29:49;;;;;;;;;;;;;;;;;;5015786;28;19917;-60
2022/12/15 08:32:14;;;;;;;;;;;;;;;;;;5021757;28;20266;-60
2022/12/15 08:34:41;;;;;;;;;;;;;;;;;;4951883;28;19922;-60
2022/12/15 08:37:06;;;;;;;;;;;;;;;;;;5038228;28;20614;-60
2022/12/15 08:39:34;;;;;;;;;;;;;;;;;;5040071;28;19922;-61
2022/12/15 08:42:00;;;;;;;;;;;;;;;;;;5029206;28;19922;-60
2022/12/15 08:44:25;;;;;;;;;;;;;;;;;;4958455;28;19918;-61
2022/12/15 08:46:51;;;;;;;;;;;;;;;;;;5014563;28;19999;-59
2022/12/15 08:49:16;;;;;;;;;;;;;;;;;;5037562;28;19922;-60
2022/12/15 08:51:48;;;;;;;;;;;;;;;;;;5020899;28;19929;-58
2022/12/15 08:54:14;;;;;;;;;;;;;;;;;;5026088;28;19921;-59
2022/12/15 08:56:39;;;;;;;;;;;;;;;;;;4954271;28;19952;-60
2022/12/15 08:59:05;;;;;;;;;;;;;;;;;;4958052;28;22057;-59
2022/12/15 09:01:38;;;;;;;;;;;;;;;;;;5003595;28;19960;-61
2022/12/15 09:04:03;;;;;;;;;;;;;;;;;;4956072;28;20016;-59
2022/12/15 09:06:38;;;;;;;;;;;;;;;;;;5008791;28;19980;-60
2022/12/15 09:09:06;;;;;;;;;;;;;;;;;;4953819;28;19969;-60
2022/12/15 09:11:32;;;;;;;;;;;;;;;;;;5022270;28;19922;-60
2022/12/15 09:13:59;;;;;;;;;;;;;;;;;;5021282;28;19933;-60
2022/12/15 09:16:24;;;;;;;;;;;;;;;;;;5039914;28;19932;-60
2022/12/15 09:18:50;;;;;;;;;;;;;;;;;;5052065;28;20013;-60
2022/12/15 09:21:18;;;;;;;;;;;;;;;;;;5040363;28;19969;-60
2022/12/15 09:23:44;;;;;;;;;;;;;;;;;;5042941;28;19928;-58
2022/12/15 09:26:09;;;;;;;;;;;;;;;;;;5042312;28;19921;-59
2022/12/15 09:28:36;;;;;;;;;;;;;;;;;;5057324;28;19977;-59
2022/12/15 09:31:01;;;;;;;;;;;;;;;;;;5056759;28;19920;-60
2022/12/15 09:33:26;;;;;;;;;;;;;;;;;;5038359;28;19928;-59
2022/12/15 09:35:56;;;;;;;;;;;;;;;;;;5024355;28;19920;-59
2022/12/15 09:38:21;;;;;;;;;;;;;;;;;;5040224;28;19931;-60
2022/12/15 09:40:50;;;;;;;;;;;;;;;;;;5055239;28;19920;-60
2022/12/15 09:43:15;;;;;;;;;;;;;;;;;;5054171;28;19935;-59
2022/12/15 09:45:42;;;;;;;;;;;;;;;;;;5055381;28;20265;-60
2022/12/15 09:48:07;;;;;;;;;;;;;;;;;;5053949;28;20050;-59
2022/12/15 09:50:33;;;;;;;;;;;;;;;;;;5052036;28;19977;-59
2022/12/15 09:52:58;;;;;;;;;;;;;;;;;;5035830;28;19920;-59
2022/12/15 09:55:23;;;;;;;;;;;;;;;;;;5040712;28;19920;-59
2022/12/15 09:57:51;;;;;;;;;;;;;;;;;;5014561;28;20030;-59
2022/12/15 10:00:20;;;;;;;;;;;;;;;;;;5055085;28;19920;-60
2022/12/15 10:02:45;;;;;;;;;;;;;;;;;;5056688;28;19916;-60
2022/12/15 10:05:10;;;;;;;;;;;;;;;;;;5053712;28;19920;-60
2022/12/15 10:07:36;;;;;;;;;;;;;;;;;;5051804;28;19920;-60
2022/12/15 10:10:03;;;;;;;;;;;;;;;;;;5036165;28;19990;-60
2022/12/15 10:12:31;;;;;;;;;;;;;;;;;;5023517;28;20811;-60
2022/12/15 10:14:57;;;;;;;;;;;;;;;;;;5051896;28;19924;-61
2022/12/15 10:17:22;;;;;;;;;;;;;;;;;;5040121;28;19923;-59
2022/12/15 10:19:48;;;;;;;;;;;;;;;;;;5055878;28;19926;-60
2022/12/15 10:22:13;;;;;;;;;;;;;;;;;;5055639;28;19916;-60
2022/12/15 10:24:41;;;;;;;;;;;;;;;;;;5053138;28;19989;-60
2022/12/15 10:27:09;;;;;;;;;;;;;;;;;;5035795;28;19920;-62
2022/12/15 10:29:34;;;;;;;;;;;;;;;;;;5059345;28;19961;-60
2022/12/15 10:32:00;;;;;;;;;;;;;;;;;;5054366;28;19978;-59
2022/12/15 10:34:28;;;;;;;;;;;;;;;;;;5039809;28;20380;-59
2022/12/15 10:36:56;;;;;;;;;;;;;;;;;;5043207;28;19925;-60
2022/12/15 10:39:24;;;;;;;;;;;;;;;;;;5042255;28;19942;-58
2022/12/15 10:41:55;;;;;;;;;;;;;;;;;;5038106;28;20477;-58
2022/12/15 10:44:20;;;;;;;;;;;;;;;;;;5044668;28;20692;-59
2022/12/15 10:46:46;;;;;;;;;;;;;;;;;;5038111;28;20046;-59
2022/12/15 10:49:12;;;;;;;;;;;;;;;;;;5058695;28;19923;-59
2022/12/15 10:51:41;;;;;;;;;;;;;;;;;;5038600;28;19920;-59
2022/12/15 10:54:08;;;;;;;;;;;;;;;;;;5043922;28;20438;-59
2022/12/15 10:56:34;;;;;;;;;;;;;;;;;;5023640;28;19920;-59
2022/12/15 10:59:03;;;;;;;;;;;;;;;;;;5057062;28;19951;-60
2022/12/15 11:01:29;;;;;;;;;;;;;;;;;;5058267;28;20007;-60
2022/12/15 11:03:55;;;;;;;;;;;;;;;;;;5042141;28;20383;-60
2022/12/15 11:06:20;;;;;;;;;;;;;;;;;;5058264;28;19920;-60
2022/12/15 11:08:46;;;;;;;;;;;;;;;;;;5058788;28;19928;-60
2022/12/15 11:13:55;;;;;;;;;;;;;;;;;;5060565;28;19920;-58
2022/12/15 11:16:21;;;;;;;;;;;;;;;;;;5057133;28;19920;-59
2022/12/15 11:18:49;;;;;;;;;;;;;;;;;;5056981;28;20019;-60
2022/12/15 11:21:15;;;;;;;;;;;;;;;;;;5058693;28;20027;-59
2022/12/15 11:23:42;;;;;;;;;;;;;;;;;;5056406;28;20014;-59
2022/12/15 11:26:08;;;;;;;;;;;;;;;;;;5039885;28;19969;-60
2022/12/15 11:28:33;;;;;;;;;;;;;;;;;;5043835;28;19990;-61
2022/12/15 11:30:59;;;;;;;;;;;;;;;;;;5059688;28;19955;-60
2022/12/15 11:33:24;;;;;;;;;;;;;;;;;;5039937;28;21108;-60
2022/12/15 11:35:50;;;;;;;;;;;;;;;;;;5040512;28;19923;-59
2022/12/15 11:38:15;;;;;;;;;;;;;;;;;;5059945;28;20019;-60
2022/12/15 11:40:43;;;;;;;;;;;;;;;;;;5055174;28;19920;-59
2022/12/15 11:43:09;;;;;;;;;;;;;;;;;;5058085;28;19970;-59
2022/12/15 11:45:37;;;;;;;;;;;;;;;;;;5058858;28;21789;-60
2022/12/15 11:48:05;;;;;;;;;;;;;;;;;;5045392;28;19920;-58
2022/12/15 11:50:31;;;;;;;;;;;;;;;;;;5058052;28;19916;-59
2022/12/15 11:52:56;;;;;;;;;;;;;;;;;;5059106;28;19917;-60
2022/12/15 11:55:26;;;;;;;;;;;;;;;;;;5026345;28;19926;-60
2022/12/15 11:57:54;;;;;;;;;;;;;;;;;;5040889;28;19931;-58
2022/12/15 12:00:22;;;;;;;;;;;;;;;;;;5057704;28;19928;-59
2022/12/15 12:02:50;;;;;;;;;;;;;;;;;;5042439;28;21963;-58
2022/12/15 12:05:17;;;;;;;;;;;;;;;;;;5038311;28;19917;-58
2022/12/15 12:07:43;;;;;;;;;;;;;;;;;;5039856;28;20020;-57
2022/12/15 12:10:08;;;;;;;;;;;;;;;;;;5043299;28;19920;-57
2022/12/15 12:12:33;;;;;;;;;;;;;;;;;;5059380;28;20057;-61
2022/12/15 12:15:01;;;;;;;;;;;;;;;;;;5058323;28;20004;-56
2022/12/15 12:17:29;;;;;;;;;;;;;;;;;;5053903;28;19970;-56
2022/12/15 12:19:54;;;;;;;;;;;;;;;;;;5056814;28;19924;-54
2022/12/15 12:22:22;;;;;;;;;;;;;;;;;;5059117;28;19916;-55
2022/12/15 12:24:52;;;;;;;;;;;;;;;;;;5040398;28;19931;-54
2022/12/15 12:27:20;;;;;;;;;;;;;;;;;;5041995;28;19916;-56
2022/12/15 12:29:48;;;;;;;;;;;;;;;;;;5040142;28;20845;-55
2022/12/15 12:32:14;;;;;;;;;;;;;;;;;;5054360;28;19925;-54
2022/12/15 12:34:40;;;;;;;;;;;;;;;;;;5025467;28;19920;-54
2022/12/15 12:37:08;;;;;;;;;;;;;;;;;;5021642;28;19920;-55
2022/12/15 12:39:33;;;;;;;;;;;;;;;;;;5039196;28;19916;-55
2022/12/15 12:42:06;;;;;;;;;;;;;;;;;;5056570;28;20038;-56
2022/12/15 12:44:32;;;;;;;;;;;;;;;;;;5054525;28;19920;-55
2022/12/15 12:47:00;;;;;;;;;;;;;;;;;;5052236;28;19916;-55
2022/12/15 12:49:25;;;;;;;;;;;;;;;;;;5042222;28;19920;-55
2022/12/15 12:51:51;;;;;;;;;;;;;;;;;;5054688;28;19927;-54
2022/12/15 12:54:16;;;;;;;;;;;;;;;;;;5056285;28;19916;-56
2022/12/15 12:56:44;;;;;;;;;;;;;;;;;;5035236;28;19916;-55
2022/12/15 12:59:11;;;;;;;;;;;;;;;;;;5043402;28;19924;-55
2022/12/15 13:01:39;;;;;;;;;;;;;;;;;;5055664;28;19959;-58
2022/12/15 13:04:08;;;;;;;;;;;;;;;;;;5054674;28;19920;-56
2022/12/15 13:06:35;;;;;;;;;;;;;;;;;;5054949;28;19924;-63
2022/12/15 13:09:00;;;;;;;;;;;;;;;;;;5035509;28;19923;-57
2022/12/15 13:11:32;;;;;;;;;;;;;;;;;;5039384;28;19916;-56
2022/12/15 13:13:57;;;;;;;;;;;;;;;;;;5039771;28;19924;-58
2022/12/15 13:16:25;;;;;;;;;;;;;;;;;;5023781;28;19927;-56
2022/12/15 13:18:52;;;;;;;;;;;;;;;;;;5057921;28;21224;-56
2022/12/15 13:21:18;;;;;;;;;;;;;;;;;;5052977;28;20423;-57
2022/12/15 13:23:48;;;;;;;;;;;;;;;;;;5055701;28;19936;-57
2022/12/15 13:26:13;;;;;;;;;;;;;;;;;;5055287;28;19916;-57
2022/12/15 13:28:39;;;;;;;;;;;;;;;;;;5057972;28;19990;-57
2022/12/15 13:31:04;;;;;;;;;;;;;;;;;;5058077;28;19938;-58
2022/12/15 13:33:32;;;;;;;;;;;;;;;;;;5057626;28;19973;-57
2022/12/15 13:36:02;;;;;;;;;;;;;;;;;;5054620;28;19920;-58
2022/12/15 13:38:30;;;;;;;;;;;;;;;;;;5038702;28;19931;-57
2022/12/15 13:41:00;;;;;;;;;;;;;;;;;;5035721;28;19931;-57
2022/12/15 13:43:25;;;;;;;;;;;;;;;;;;5022940;28;20925;-58
2022/12/15 13:45:52;;;;;;;;;;;;;;;;;;5051951;28;19924;-57
2022/12/15 13:48:18;;;;;;;;;;;;;;;;;;5037858;28;19920;-57
2022/12/15 13:50:47;;;;;;;;;;;;;;;;;;5050218;28;19920;-58
2022/12/15 13:53:17;;;;;;;;;;;;;;;;;;5054685;28;19916;-57
2022/12/15 13:55:45;;;;;;;;;;;;;;;;;;5052558;28;19923;-57
2022/12/15 13:58:11;;;;;;;;;;;;;;;;;;5056154;28;19924;-57
2022/12/15 14:00:39;;;;;;;;;;;;;;;;;;5040938;28;21094;-57
2022/12/15 14:03:05;;;;;;;;;;;;;;;;;;5046229;28;20340;-57
2022/12/15 14:05:30;;;;;;;;;;;;;;;;;;5053588;28;19920;-57
2022/12/15 14:07:56;;;;;;;;;;;;;;;;;;5052948;28;19962;-56
2022/12/15 14:10:22;;;;;;;;;;;;;;;;;;5054109;28;20009;-56
2022/12/15 14:12:51;;;;;;;;;;;;;;;;;;5042832;28;20584;-56
2022/12/15 14:15:18;;;;;;;;;;;;;;;;;;5040780;28;19916;-57
2022/12/15 14:17:46;;;;;;;;;;;;;;;;;;5066050;28;19959;-56
2022/12/15 14:20:12;;;;;;;;;;;;;;;;;;5045037;28;20021;-57
2022/12/15 14:22:41;;;;;;;;;;;;;;;;;;4961851;28;20066;-58
2022/12/15 14:25:09;;;;;;;;;;;;;;;;;;5055123;28;19924;-57
2022/12/15 14:27:34;;;;;;;;;;;;;;;;;;5017082;28;19924;-58
2022/12/15 14:29:59;;;;;;;;;;;;;;;;;;5056566;28;19923;-58
2022/12/15 14:32:26;;;;;;;;;;;;;;;;;;5072885;28;20149;-58
2022/12/15 14:34:57;;;;;;;;;;;;;;;;;;5067126;28;19985;-59
2022/12/15 14:37:25;;;;;;;;;;;;;;;;;;5037607;28;19928;-57
2022/12/15 14:39:51;;;;;;;;;;;;;;;;;;5048772;28;20225;-58
2022/12/15 14:42:19;;;;;;;;;;;;;;;;;;5054274;28;19985;-58
2022/12/15 14:44:45;;;;;;;;;;;;;;;;;;5056501;28;19955;-58
2022/12/15 14:50:27;;;;;;;;;;;;;;;;;;5067151;28;19923;-59
2022/12/15 14:52:55;;;;;;;;;;;;;;;;;;5043514;28;19923;-59
2022/12/15 14:55:25;;;;;;;;;;;;;;;;;;5052701;28;20095;-59
2022/12/15 14:57:52;;;;;;;;;;;;;;;;;;5050135;28;19965;-59
2022/12/15 15:00:20;;;;;;;;;;;;;;;;;;5053228;28;19924;-59
2022/12/15 15:02:58;;;;;;;;;;;;;;;;;;5067177;28;19920;-59
2022/12/15 15:05:38;;;;;;;;;;;;;;;;;;5064897;28;20015;-59
2022/12/15 15:08:22;;;;;;;;;;;;;;;;;;5053316;28;20033;-58
2022/12/15 15:10:51;;;;;;;;;;;;;;;;;;5046004;28;19920;-58
2022/12/15 15:13:17;;;;;;;;;;;;;;;;;;5047646;28;19924;-58
2022/12/15 15:15:42;;;;;;;;;;;;;;;;;;5042382;28;19967;-59
2022/12/15 15:18:10;;;;;;;;;;;;;;;;;;5014779;22;20930;-57
2022/12/15 15:20:36;;;;;;;;;;;;;;;;;;4938767;28;20207;-58
2022/12/15 15:23:07;;;;;;;;;;;;;;;;;;4922119;28;20286;-59
2022/12/15 15:25:39;;;;;;;;;;;;;;;;;;4937604;28;20366;-59
2022/12/15 15:28:06;;;;;;;;;;;;;;;;;;4920442;28;20424;-58
2022/12/15 15:30:33;;;;;;;;;;;;;;;;;;4934770;28;19922;-60
2022/12/15 15:33:01;;;;;;;;;;;;;;;;;;4939727;28;19925;-58
2022/12/15 15:35:36;;;;;;;;;;;;;;;;;;4923449;28;19961;-58
2022/12/15 15:38:04;;;;;;;;;;;;;;;;;;4934520;28;19926;-59
2022/12/15 15:40:34;;;;;;;;;;;;;;;;;;4938811;28;20266;-60
2022/12/15 15:42:59;;;;;;;;;;;;;;;;;;4919851;28;20014;-59
2022/12/15 15:45:24;;;;;;;;;;;;;;;;;;4938909;28;20930;-59
2022/12/15 15:47:50;;;;;;;;;;;;;;;;;;4935413;28;19945;-59
2022/12/15 15:50:16;;;;;;;;;;;;;;;;;;4940284;28;19930;-59
2022/12/15 15:52:44;;;;;;;;;;;;;;;;;;4931159;28;19957;-59
2022/12/15 15:55:12;;;;;;;;;;;;;;;;;;4919392;28;20024;-59
2022/12/15 15:57:38;;;;;;;;;;;;;;;;;;4994591;28;20030;-58
2022/12/15 16:00:11;;;;;;;;;;;;;;;;;;4928905;28;20045;-58
2022/12/15 16:02:41;;;;;;;;;;;;;;;;;;4916959;28;19922;-59
2022/12/15 16:05:09;;;;;;;;;;;;;;;;;;4917465;28;20089;-58
2022/12/15 16:07:35;;;;;;;;;;;;;;;;;;4931292;28;19922;-58
2022/12/15 16:10:04;;;;;;;;;;;;;;;;;;4933830;28;20012;-59
2022/12/15 16:12:30;;;;;;;;;;;;;;;;;;4931552;28;19932;-59
2022/12/15 16:14:57;;;;;;;;;;;;;;;;;;4931279;28;19987;-58
2022/12/15 16:17:23;;;;;;;;;;;;;;;;;;4944030;28;20142;-59
2022/12/15 16:19:48;;;;;;;;;;;;;;;;;;4953360;28;19970;-58
2022/12/15 16:22:13;;;;;;;;;;;;;;;;;;4953536;28;20018;-60
2022/12/15 16:24:41;;;;;;;;;;;;;;;;;;4956234;28;19962;-59
2022/12/15 16:27:16;;;;;;;;;;;;;;;;;;4955497;28;19917;-59
2022/12/15 16:29:44;;;;;;;;;;;;;;;;;;4948395;28;19921;-59
2022/12/15 16:32:12;;;;;;;;;;;;;;;;;;4955382;28;20004;-59
2022/12/15 16:34:38;;;;;;;;;;;;;;;;;;4953068;28;19918;-60
2022/12/15 16:37:03;;;;;;;;;;;;;;;;;;4956455;28;20535;-60
2022/12/15 16:39:31;;;;;;;;;;;;;;;;;;4951148;28;19941;-59
2022/12/15 16:41:56;;;;;;;;;;;;;;;;;;4931443;28;20906;-60
2022/12/15 16:44:24;;;;;;;;;;;;;;;;;;4936241;28;19961;-59
2022/12/15 16:46:49;;;;;;;;;;;;;;;;;;4929977;28;20482;-60
2022/12/15 16:49:15;;;;;;;;;;;;;;;;;;4933593;28;19922;-58
2022/12/15 16:51:42;;;;;;;;;;;;;;;;;;4932736;28;19922;-60
2022/12/15 16:54:07;;;;;;;;;;;;;;;;;;4952242;28;20492;-60
2022/12/15 16:56:33;;;;;;;;;;;;;;;;;;4954667;28;19972;-60
2022/12/15 16:59:01;;;;;;;;;;;;;;;;;;4956378;28;20447;-59
2022/12/15 17:01:26;;;;;;;;;;;;;;;;;;4960494;28;19922;-60
2022/12/15 17:03:54;;;;;;;;;;;;;;;;;;4941467;28;20269;-60
2022/12/15 17:06:19;;;;;;;;;;;;;;;;;;4957588;28;20396;-58
2022/12/15 17:08:46;;;;;;;;;;;;;;;;;;4917234;28;19922;-58
2022/12/15 17:11:21;;;;;;;;;;;;;;;;;;4934268;28;19917;-59
2022/12/15 17:13:49;;;;;;;;;;;;;;;;;;4937467;28;20005;-60
2022/12/15 17:16:17;;;;;;;;;;;;;;;;;;4936402;28;19937;-59
2022/12/15 17:18:48;;;;;;;;;;;;;;;;;;4948984;28;20115;-59
2022/12/15 17:21:14;;;;;;;;;;;;;;;;;;4943799;28;20373;-59
2022/12/15 17:23:40;;;;;;;;;;;;;;;;;;4941063;28;19965;-59
2022/12/15 17:26:11;;;;;;;;;;;;;;;;;;4952219;28;20210;-59
2022/12/15 17:28:37;;;;;;;;;;;;;;;;;;4923111;28;19929;-59
2022/12/15 17:31:05;;;;;;;;;;;;;;;;;;4938555;28;20055;-58
2022/12/15 17:33:31;;;;;;;;;;;;;;;;;;4963113;28;19980;-58
2022/12/15 17:35:57;;;;;;;;;;;;;;;;;;4938938;28;20013;-58
2022/12/15 17:38:24;;;;;;;;;;;;;;;;;;4921776;28;19929;-58
2022/12/15 17:40:51;;;;;;;;;;;;;;;;;;4953348;28;20017;-57
2022/12/15 17:43:17;;;;;;;;;;;;;;;;;;4940970;28;20080;-58
2022/12/15 17:45:43;;;;;;;;;;;;;;;;;;4955404;28;20566;-59
2022/12/15 17:48:09;;;;;;;;;;;;;;;;;;4956478;28;20574;-59
2022/12/15 17:50:37;;;;;;;;;;;;;;;;;;4924170;28;19930;-59
2022/12/15 17:53:09;;;;;;;;;;;;;;;;;;4937872;28;19953;-58
2022/12/15 17:55:35;;;;;;;;;;;;;;;;;;4988983;28;19922;-58
2022/12/15 17:58:02;;;;;;;;;;;;;;;;;;4942256;28;20013;-59
2022/12/15 18:00:30;;;;;;;;;;;;;;;;;;4921277;28;20026;-59
2022/12/15 18:02:56;;;;;;;;;;;;;;;;;;4955626;28;19922;-57
2022/12/15 18:05:22;;;;;;;;;;;;;;;;;;4954641;28;20431;-58
2022/12/15 18:07:49;;;;;;;;;;;;;;;;;;4921147;28;20479;-58
2022/12/15 18:10:15;;;;;;;;;;;;;;;;;;4951783;28;19918;-59
2022/12/15 18:12:42;;;;;;;;;;;;;;;;;;4954599;28;19944;-59
2022/12/15 18:15:08;;;;;;;;;;;;;;;;;;4940455;28;20364;-59
2022/12/15 18:17:36;;;;;;;;;;;;;;;;;;4961185;28;20407;-59
2022/12/15 18:20:09;;;;;;;;;;;;;;;;;;4971522;28;19929;-58
2022/12/15 18:22:35;;;;;;;;;;;;;;;;;;4962157;28;19928;-58
2022/12/15 18:25:00;;;;;;;;;;;;;;;;;;4976565;28;19921;-60
2022/12/15 18:27:27;;;;;;;;;;;;;;;;;;4960539;28;19927;-57
2022/12/15 18:29:52;;;;;;;;;;;;;;;;;;4961381;28;19918;-59
2022/12/15 18:32:18;;;;;;;;;;;;;;;;;;4945015;28;19925;-58
2022/12/15 18:34:45;;;;;;;;;;;;;;;;;;4978266;28;20584;-58
2022/12/15 18:37:11;;;;;;;;;;;;;;;;;;4960123;28;20012;-60
2022/12/15 18:39:40;;;;;;;;;;;;;;;;;;4977162;28;19921;-57
2022/12/15 18:42:07;;;;;;;;;;;;;;;;;;4975703;28;20269;-57
2022/12/15 18:44:33;;;;;;;;;;;;;;;;;;4976116;28;21862;-58
2022/12/15 18:47:06;;;;;;;;;;;;;;;;;;4973941;28;20789;-59
2022/12/15 18:49:34;;;;;;;;;;;;;;;;;;4957004;28;19922;-58
2022/12/15 18:52:00;;;;;;;;;;;;;;;;;;4969759;28;20367;-59
2022/12/15 18:54:25;;;;;;;;;;;;;;;;;;4973179;28;20048;-59
2022/12/15 18:56:51;;;;;;;;;;;;;;;;;;4938430;28;20450;-58
2022/12/15 18:59:19;;;;;;;;;;;;;;;;;;4957147;28;19925;-59
2022/12/15 19:01:45;;;;;;;;;;;;;;;;;;4959293;28;20303;-57
2022/12/15 19:04:15;;;;;;;;;;;;;;;;;;4939908;28;20035;-56
2022/12/15 19:06:40;;;;;;;;;;;;;;;;;;4959222;28;19933;-58
2022/12/15 19:09:05;;;;;;;;;;;;;;;;;;4959829;28;19974;-57
2022/12/15 19:11:31;;;;;;;;;;;;;;;;;;4977661;28;19927;-59
2022/12/15 19:13:58;;;;;;;;;;;;;;;;;;4960340;28;20069;-57
2022/12/15 19:16:24;;;;;;;;;;;;;;;;;;4977812;28;19959;-56
2022/12/15 19:24:52;;;;;;;;;;;;;;;;;;4961986;28;19957;-57